Terminal Aerodrome Forecast
Issued by NWS Memphis, TN

Home | Current Version | Previous Version | Text Only | Print | Product List | Glossary On
Versions: 1 2 3 4 5 6 7 8 9 10 11 12 13 14 15 16 17 18 19 20 21 22 23 24 25 26 27 28 29 30 31 32 33 34 35 36 37 38 39 40 41
000
FTUS44 KMEG 252107 AAE
TAFMEM
TAF AMD
KMEM 252107Z 2521/2618 17008KT P6SM BKN045
     FM260700 18013KT P6SM VCTS BKN030CB BKN250
      TEMPO 2608/2611 3SM TSRA BKN025CB
     FM261200 16012KT P6SM SHRA VCTS BKN025CB
     FM261400 18015G22KT P6SM OVC025=

USA.gov is the U.S. government's official web portal to all federal, state and local government web resources and services.